sensor_id;sensor_type;location;lat;lon;timestamp;temperature;humidity
75190;HTU21D;69198;44.694;37.790;2024-01-06T00:00:32;6.34;90.58
75190;HTU21D;69198;44.694;37.790;2024-01-06T00:01:33;6.36;90.61
75190;HTU21D;69198;44.694;37.790;2024-01-06T00:02:35;6.35;90.54
75190;HTU21D;69198;44.694;37.790;2024-01-06T00:03:36;6.34;90.50
75190;HTU21D;69198;44.694;37.790;2024-01-06T00:04:37;6.31;90.41
75190;HTU21D;69198;44.694;37.790;2024-01-06T00:05:38;6.26;90.45
75190;HTU21D;69198;44.694;37.790;2024-01-06T00:06:39;6.23;90.57
75190;HTU21D;69198;44.694;37.790;2024-01-06T00:07:40;6.21;90.73
75190;HTU21D;69198;44.694;37.790;2024-01-06T00:08:41;6.21;90.81
75190;HTU21D;69198;44.694;37.790;2024-01-06T00:09:42;6.20;90.79
75190;HTU21D;69198;44.694;37.790;2024-01-06T00:10:43;6.19;90.86
75190;HTU21D;69198;44.694;37.790;2024-01-06T00:11:44;6.17;90.95
75190;HTU21D;69198;44.694;37.790;2024-01-06T00:12:45;6.17;91.08
75190;HTU21D;69198;44.694;37.790;2024-01-06T00:13:47;6.20;91.17
75190;HTU21D;69198;44.694;37.790;2024-01-06T00:14:48;6.19;91.29
75190;HTU21D;69198;44.694;37.790;2024-01-06T00:15:49;6.23;91.36
75190;HTU21D;69198;44.694;37.790;2024-01-06T00:16:50;6.26;91.43
75190;HTU21D;69198;44.694;37.790;2024-01-06T00:17:51;6.28;91.40
75190;HTU21D;69198;44.694;37.790;2024-01-06T00:18:52;6.31;91.30
75190;HTU21D;69198;44.694;37.790;2024-01-06T00:19:53;6.34;91.30
75190;HTU21D;69198;44.694;37.790;2024-01-06T00:20:55;6.34;91.24
75190;HTU21D;69198;44.694;37.790;2024-01-06T00:21:57;6.34;91.27
75190;HTU21D;69198;44.694;37.790;2024-01-06T00:22:58;6.35;91.33
75190;HTU21D;69198;44.694;37.790;2024-01-06T00:23:59;6.35;91.28
75190;HTU21D;69198;44.694;37.790;2024-01-06T00:25:01;6.36;91.48
75190;HTU21D;69198;44.694;37.790;2024-01-06T00:26:02;6.35;91.27
75190;HTU21D;69198;44.694;37.790;2024-01-06T00:27:03;6.34;91.22
75190;HTU21D;69198;44.694;37.790;2024-01-06T00:28:04;6.35;91.30
75190;HTU21D;69198;44.694;37.790;2024-01-06T00:29:05;6.36;91.24
75190;HTU21D;69198;44.694;37.790;2024-01-06T00:30:07;6.36;91.08
75190;HTU21D;69198;44.694;37.790;2024-01-06T00:31:09;6.34;91.08
75190;HTU21D;69198;44.694;37.790;2024-01-06T00:32:10;6.30;91.20
75190;HTU21D;69198;44.694;37.790;2024-01-06T00:33:12;6.28;91.21
75190;HTU21D;69198;44.694;37.790;2024-01-06T00:34:13;6.26;91.21
75190;HTU21D;69198;44.694;37.790;2024-01-06T00:35:14;6.25;91.26
75190;HTU21D;69198;44.694;37.790;2024-01-06T00:36:15;6.24;91.27
75190;HTU21D;69198;44.694;37.790;2024-01-06T00:37:17;6.22;91.36
75190;HTU21D;69198;44.694;37.790;2024-01-06T00:38:18;6.20;91.36
75190;HTU21D;69198;44.694;37.790;2024-01-06T00:39:20;6.20;91.43
75190;HTU21D;69198;44.694;37.790;2024-01-06T00:40:21;6.20;91.51
75190;HTU21D;69198;44.694;37.790;2024-01-06T00:41:23;6.20;91.56
75190;HTU21D;69198;44.694;37.790;2024-01-06T00:42:24;6.22;91.53
75190;HTU21D;69198;44.694;37.790;2024-01-06T00:43:25;6.21;91.44
75190;HTU21D;69198;44.694;37.790;2024-01-06T00:44:26;6.22;91.50
75190;HTU21D;69198;44.694;37.790;2024-01-06T00:45:27;6.20;91.57
75190;HTU21D;69198;44.694;37.790;2024-01-06T00:46:28;6.22;91.54
75190;HTU21D;69198;44.694;37.790;2024-01-06T00:47:29;6.22;91.44
75190;HTU21D;69198;44.694;37.790;2024-01-06T00:48:30;6.21;91.44
75190;HTU21D;69198;44.694;37.790;2024-01-06T00:49:31;6.21;91.47
75190;HTU21D;69198;44.694;37.790;2024-01-06T00:50:32;6.22;91.39
75190;HTU21D;69198;44.694;37.790;2024-01-06T00:51:33;6.17;91.43
75190;HTU21D;69198;44.694;37.790;2024-01-06T00:52:34;6.16;91.47
75190;HTU21D;69198;44.694;37.790;2024-01-06T00:53:35;6.17;91.44
75190;HTU21D;69198;44.694;37.790;2024-01-06T00:54:36;6.17;91.44
75190;HTU21D;69198;44.694;37.790;2024-01-06T00:55:38;6.15;91.41
75190;HTU21D;69198;44.694;37.790;2024-01-06T00:56:38;6.13;91.40
75190;HTU21D;69198;44.694;37.790;2024-01-06T00:57:40;6.12;91.42
75190;HTU21D;69198;44.694;37.790;2024-01-06T00:58:41;6.11;91.47
75190;HTU21D;69198;44.694;37.790;2024-01-06T00:59:42;6.11;91.50
75190;HTU21D;69198;44.694;37.790;2024-01-06T01:00:43;6.13;91.47
75190;HTU21D;69198;44.694;37.790;2024-01-06T01:01:44;6.12;91.53
75190;HTU21D;69198;44.694;37.790;2024-01-06T01:02:45;6.11;91.50
75190;HTU21D;69198;44.694;37.790;2024-01-06T01:03:46;6.11;91.42
75190;HTU21D;69198;44.694;37.790;2024-01-06T01:04:47;6.09;91.37
75190;HTU21D;69198;44.694;37.790;2024-01-06T01:05:48;6.08;91.33
75190;HTU21D;69198;44.694;37.790;2024-01-06T01:06:49;6.04;91.34
75190;HTU21D;69198;44.694;37.790;2024-01-06T01:07:50;6.04;91.45
75190;HTU21D;69198;44.694;37.790;2024-01-06T01:08:51;6.02;91.44
75190;HTU21D;69198;44.694;37.790;2024-01-06T01:09:52;6.00;91.43
75190;HTU21D;69198;44.694;37.790;2024-01-06T01:10:53;6.00;91.43
75190;HTU21D;69198;44.694;37.790;2024-01-06T01:11:54;5.98;91.37
75190;HTU21D;69198;44.694;37.790;2024-01-06T01:12:55;5.97;91.37
75190;HTU21D;69198;44.694;37.790;2024-01-06T01:13:57;5.97;91.35
75190;HTU21D;69198;44.694;37.790;2024-01-06T01:14:58;5.96;91.26
75190;HTU21D;69198;44.694;37.790;2024-01-06T01:15:59;5.96;91.21
75190;HTU21D;69198;44.694;37.790;2024-01-06T01:17:00;5.97;91.09
75190;HTU21D;69198;44.694;37.790;2024-01-06T01:18:01;5.97;91.09
75190;HTU21D;69198;44.694;37.790;2024-01-06T01:19:02;5.98;91.03
75190;HTU21D;69198;44.694;37.790;2024-01-06T01:20:04;5.97;90.92
75190;HTU21D;69198;44.694;37.790;2024-01-06T01:21:05;5.96;90.92
75190;HTU21D;69198;44.694;37.790;2024-01-06T01:22:06;5.98;90.94
75190;HTU21D;69198;44.694;37.790;2024-01-06T01:23:08;5.98;90.82
75190;HTU21D;69198;44.694;37.790;2024-01-06T01:24:09;5.97;90.69
75190;HTU21D;69198;44.694;37.790;2024-01-06T01:25:10;5.93;90.69
75190;HTU21D;69198;44.694;37.790;2024-01-06T01:26:12;5.92;90.77
75190;HTU21D;69198;44.694;37.790;2024-01-06T01:27:14;5.87;90.76
75190;HTU21D;69198;44.694;37.790;2024-01-06T01:28:15;5.84;90.75
75190;HTU21D;69198;44.694;37.790;2024-01-06T01:29:18;5.81;90.82
75190;HTU21D;69198;44.694;37.790;2024-01-06T01:30:20;5.76;90.92
75190;HTU21D;69198;44.694;37.790;2024-01-06T01:31:21;5.74;91.11
75190;HTU21D;69198;44.694;37.790;2024-01-06T01:32:22;5.74;91.20
75190;HTU21D;69198;44.694;37.790;2024-01-06T01:33:25;5.74;91.28
75190;HTU21D;69198;44.694;37.790;2024-01-06T01:34:26;5.75;91.29
75190;HTU21D;69198;44.694;37.790;2024-01-06T01:35:27;5.75;91.31
75190;HTU21D;69198;44.694;37.790;2024-01-06T01:36:28;5.77;91.34
75190;HTU21D;69198;44.694;37.790;2024-01-06T01:37:29;5.79;91.35
75190;HTU21D;69198;44.694;37.790;2024-01-06T01:38:30;5.81;91.36
75190;HTU21D;69198;44.694;37.790;2024-01-06T01:39:31;5.82;91.38
75190;HTU21D;69198;44.694;37.790;2024-01-06T01:40:32;5.83;91.21
75190;HTU21D;69198;44.694;37.790;2024-01-06T01:41:33;5.82;91.12
75190;HTU21D;69198;44.694;37.790;2024-01-06T01:42:34;5.82;91.09
75190;HTU21D;69198;44.694;37.790;2024-01-06T01:43:35;5.83;91.14
75190;HTU21D;69198;44.694;37.790;2024-01-06T01:44:36;5.84;91.20
75190;HTU21D;69198;44.694;37.790;2024-01-06T01:45:37;5.89;91.22
75190;HTU21D;69198;44.694;37.790;2024-01-06T01:46:39;5.92;91.15
75190;HTU21D;69198;44.694;37.790;2024-01-06T01:47:40;5.94;91.15
75190;HTU21D;69198;44.694;37.790;2024-01-06T01:48:42;5.95;91.16
75190;HTU21D;69198;44.694;37.790;2024-01-06T01:49:43;5.96;91.13
75190;HTU21D;69198;44.694;37.790;2024-01-06T01:50:44;5.96;91.04
75190;HTU21D;69198;44.694;37.790;2024-01-06T01:51:45;5.95;91.05
75190;HTU21D;69198;44.694;37.790;2024-01-06T01:52:47;5.96;91.08
75190;HTU21D;69198;44.694;37.790;2024-01-06T01:53:48;5.95;91.06
75190;HTU21D;69198;44.694;37.790;2024-01-06T01:54:51;5.94;91.05
75190;HTU21D;69198;44.694;37.790;2024-01-06T01:55:53;5.93;91.06
75190;HTU21D;69198;44.694;37.790;2024-01-06T01:56:55;5.89;91.01
75190;HTU21D;69198;44.694;37.790;2024-01-06T01:57:56;5.84;91.02
75190;HTU21D;69198;44.694;37.790;2024-01-06T01:58:58;5.81;91.06
75190;HTU21D;69198;44.694;37.790;2024-01-06T02:00:00;5.78;91.11
75190;HTU21D;69198;44.694;37.790;2024-01-06T02:01:02;5.74;91.18
75190;HTU21D;69198;44.694;37.790;2024-01-06T02:02:04;5.71;91.39
75190;HTU21D;69198;44.694;37.790;2024-01-06T02:03:05;5.74;91.50
75190;HTU21D;69198;44.694;37.790;2024-01-06T02:04:07;5.75;91.34
75190;HTU21D;69198;44.694;37.790;2024-01-06T02:05:08;5.72;91.31
75190;HTU21D;69198;44.694;37.790;2024-01-06T02:06:10;5.71;91.31
75190;HTU21D;69198;44.694;37.790;2024-01-06T02:07:12;5.71;91.44
75190;HTU21D;69198;44.694;37.790;2024-01-06T02:08:13;5.72;91.55
75190;HTU21D;69198;44.694;37.790;2024-01-06T02:09:14;5.77;91.43
75190;HTU21D;69198;44.694;37.790;2024-01-06T02:10:15;5.78;91.32
75190;HTU21D;69198;44.694;37.790;2024-01-06T02:11:16;5.78;91.42
75190;HTU21D;69198;44.694;37.790;2024-01-06T02:12:17;5.79;91.56
75190;HTU21D;69198;44.694;37.790;2024-01-06T02:13:18;5.80;91.58
75190;HTU21D;69198;44.694;37.790;2024-01-06T02:14:19;5.82;91.50
75190;HTU21D;69198;44.694;37.790;2024-01-06T02:15:21;5.82;91.56
75190;HTU21D;69198;44.694;37.790;2024-01-06T02:16:22;5.85;91.76
75190;HTU21D;69198;44.694;37.790;2024-01-06T02:17:23;5.86;91.69
75190;HTU21D;69198;44.694;37.790;2024-01-06T02:18:24;5.89;91.91
75190;HTU21D;69198;44.694;37.790;2024-01-06T02:19:25;5.94;91.95
75190;HTU21D;69198;44.694;37.790;2024-01-06T02:20:27;5.97;91.85
75190;HTU21D;69198;44.694;37.790;2024-01-06T02:21:31;5.98;91.87
75190;HTU21D;69198;44.694;37.790;2024-01-06T02:22:35;6.02;91.81
75190;HTU21D;69198;44.694;37.790;2024-01-06T02:23:37;6.01;91.74
75190;HTU21D;69198;44.694;37.790;2024-01-06T02:24:37;6.02;91.95
75190;HTU21D;69198;44.694;37.790;2024-01-06T02:25:39;6.06;91.79
75190;HTU21D;69198;44.694;37.790;2024-01-06T02:26:40;6.08;91.99
75190;HTU21D;69198;44.694;37.790;2024-01-06T02:27:41;6.12;91.79
75190;HTU21D;69198;44.694;37.790;2024-01-06T02:28:42;6.15;91.76
75190;HTU21D;69198;44.694;37.790;2024-01-06T02:29:48;6.19;91.76
75190;HTU21D;69198;44.694;37.790;2024-01-06T02:30:49;6.24;91.79
75190;HTU21D;69198;44.694;37.790;2024-01-06T02:31:50;6.27;91.58
75190;HTU21D;69198;44.694;37.790;2024-01-06T02:32:51;6.29;91.39
75190;HTU21D;69198;44.694;37.790;2024-01-06T02:33:53;6.30;91.45
75190;HTU21D;69198;44.694;37.790;2024-01-06T02:34:54;6.34;91.46
75190;HTU21D;69198;44.694;37.790;2024-01-06T02:35:55;6.36;91.15
75190;HTU21D;69198;44.694;37.790;2024-01-06T02:36:56;6.37;91.27
75190;HTU21D;69198;44.694;37.790;2024-01-06T02:37:57;6.38;91.05
75190;HTU21D;69198;44.694;37.790;2024-01-06T02:38:58;6.35;90.85
75190;HTU21D;69198;44.694;37.790;2024-01-06T02:39:59;6.36;91.02
75190;HTU21D;69198;44.694;37.790;2024-01-06T02:41:00;6.36;91.01
75190;HTU21D;69198;44.694;37.790;2024-01-06T02:42:01;6.35;90.76
75190;HTU21D;69198;44.694;37.790;2024-01-06T02:43:02;6.31;90.71
75190;HTU21D;69198;44.694;37.790;2024-01-06T02:44:04;6.27;90.78
75190;HTU21D;69198;44.694;37.790;2024-01-06T02:45:07;6.26;90.89
75190;HTU21D;69198;44.694;37.790;2024-01-06T02:46:09;6.24;90.95
75190;HTU21D;69198;44.694;37.790;2024-01-06T02:47:10;6.24;91.05
75190;HTU21D;69198;44.694;37.790;2024-01-06T02:48:11;6.26;91.02
75190;HTU21D;69198;44.694;37.790;2024-01-06T02:49:12;6.25;91.00
75190;HTU21D;69198;44.694;37.790;2024-01-06T02:50:13;6.25;90.89
75190;HTU21D;69198;44.694;37.790;2024-01-06T02:51:14;6.23;90.87
75190;HTU21D;69198;44.694;37.790;2024-01-06T02:52:15;6.17;90.83
75190;HTU21D;69198;44.694;37.790;2024-01-06T02:53:16;6.14;90.88
75190;HTU21D;69198;44.694;37.790;2024-01-06T02:54:17;6.13;90.94
75190;HTU21D;69198;44.694;37.790;2024-01-06T02:55:18;6.12;90.92
75190;HTU21D;69198;44.694;37.790;2024-01-06T02:56:19;6.11;90.73
75190;HTU21D;69198;44.694;37.790;2024-01-06T02:57:21;6.08;90.62
75190;HTU21D;69198;44.694;37.790;2024-01-06T02:58:22;6.06;90.61
75190;HTU21D;69198;44.694;37.790;2024-01-06T02:59:22;6.04;90.65
75190;HTU21D;69198;44.694;37.790;2024-01-06T03:00:24;6.01;90.74
75190;HTU21D;69198;44.694;37.790;2024-01-06T03:01:26;5.99;90.77
75190;HTU21D;69198;44.694;37.790;2024-01-06T03:02:27;5.98;90.79
75190;HTU21D;69198;44.694;37.790;2024-01-06T03:03:28;5.97;90.77
75190;HTU21D;69198;44.694;37.790;2024-01-06T03:04:29;5.95;90.77
75190;HTU21D;69198;44.694;37.790;2024-01-06T03:05:30;5.92;90.79
75190;HTU21D;69198;44.694;37.790;2024-01-06T03:06:32;5.89;90.81
75190;HTU21D;69198;44.694;37.790;2024-01-06T03:07:33;5.87;90.86
75190;HTU21D;69198;44.694;37.790;2024-01-06T03:08:34;5.86;90.89
75190;HTU21D;69198;44.694;37.790;2024-01-06T03:09:35;5.86;90.76
75190;HTU21D;69198;44.694;37.790;2024-01-06T03:10:36;5.84;90.79
75190;HTU21D;69198;44.694;37.790;2024-01-06T03:11:38;5.81;90.71
75190;HTU21D;69198;44.694;37.790;2024-01-06T03:12:39;5.81;90.73
75190;HTU21D;69198;44.694;37.790;2024-01-06T03:13:41;5.80;90.73
75190;HTU21D;69198;44.694;37.790;2024-01-06T03:14:42;5.77;90.84
75190;HTU21D;69198;44.694;37.790;2024-01-06T03:15:43;5.76;90.87
75190;HTU21D;69198;44.694;37.790;2024-01-06T03:16:44;5.72;90.84
75190;HTU21D;69198;44.694;37.790;2024-01-06T03:17:45;5.74;90.88
75190;HTU21D;69198;44.694;37.790;2024-01-06T03:18:46;5.72;90.92
75190;HTU21D;69198;44.694;37.790;2024-01-06T03:19:47;5.72;90.95
75190;HTU21D;69198;44.694;37.790;2024-01-06T03:20:48;5.71;90.95
75190;HTU21D;69198;44.694;37.790;2024-01-06T03:21:49;5.71;90.95
75190;HTU21D;69198;44.694;37.790;2024-01-06T03:22:50;5.70;91.02
75190;HTU21D;69198;44.694;37.790;2024-01-06T03:23:51;5.69;90.92
75190;HTU21D;69198;44.694;37.790;2024-01-06T03:24:52;5.68;91.01
75190;HTU21D;69198;44.694;37.790;2024-01-06T03:25:53;5.68;91.02
75190;HTU21D;69198;44.694;37.790;2024-01-06T03:26:54;5.66;90.83
75190;HTU21D;69198;44.694;37.790;2024-01-06T03:27:55;5.64;90.84
75190;HTU21D;69198;44.694;37.790;2024-01-06T03:28:56;5.63;90.92
75190;HTU21D;69198;44.694;37.790;2024-01-06T03:29:59;5.62;90.87
75190;HTU21D;69198;44.694;37.790;2024-01-06T03:31:00;5.61;90.86
75190;HTU21D;69198;44.694;37.790;2024-01-06T03:32:01;5.60;90.93
75190;HTU21D;69198;44.694;37.790;2024-01-06T03:33:02;5.62;90.91
75190;HTU21D;69198;44.694;37.790;2024-01-06T03:34:03;5.61;90.80
75190;HTU21D;69198;44.694;37.790;2024-01-06T03:35:05;5.60;90.82
75190;HTU21D;69198;44.694;37.790;2024-01-06T03:36:07;5.60;90.86
75190;HTU21D;69198;44.694;37.790;2024-01-06T03:37:08;5.56;90.89
75190;HTU21D;69198;44.694;37.790;2024-01-06T03:38:09;5.55;90.94
75190;HTU21D;69198;44.694;37.790;2024-01-06T03:39:11;5.53;91.02
75190;HTU21D;69198;44.694;37.790;2024-01-06T03:40:13;5.52;91.10
75190;HTU21D;69198;44.694;37.790;2024-01-06T03:41:14;5.51;91.21
75190;HTU21D;69198;44.694;37.790;2024-01-06T03:42:15;5.49;91.27
75190;HTU21D;69198;44.694;37.790;2024-01-06T03:43:16;5.48;91.42
75190;HTU21D;69198;44.694;37.790;2024-01-06T03:44:17;5.48;91.51
75190;HTU21D;69198;44.694;37.790;2024-01-06T03:45:18;5.49;91.47
75190;HTU21D;69198;44.694;37.790;2024-01-06T03:46:19;5.50;91.44
75190;HTU21D;69198;44.694;37.790;2024-01-06T03:47:20;5.51;91.37
75190;HTU21D;69198;44.694;37.790;2024-01-06T03:48:21;5.51;91.27
75190;HTU21D;69198;44.694;37.790;2024-01-06T03:49:22;5.50;91.21
75190;HTU21D;69198;44.694;37.790;2024-01-06T03:50:23;5.49;91.21
75190;HTU21D;69198;44.694;37.790;2024-01-06T03:51:24;5.47;91.18
75190;HTU21D;69198;44.694;37.790;2024-01-06T03:52:25;5.42;91.31
75190;HTU21D;69198;44.694;37.790;2024-01-06T03:53:26;5.42;91.42
75190;HTU21D;69198;44.694;37.790;2024-01-06T03:54:27;5.43;91.27
75190;HTU21D;69198;44.694;37.790;2024-01-06T03:55:29;5.41;91.21
75190;HTU21D;69198;44.694;37.790;2024-01-06T03:56:30;5.39;91.22
75190;HTU21D;69198;44.694;37.790;2024-01-06T03:57:31;5.38;91.37
75190;HTU21D;69198;44.694;37.790;2024-01-06T03:58:32;5.36;91.34
75190;HTU21D;69198;44.694;37.790;2024-01-06T03:59:33;5.36;91.39
75190;HTU21D;69198;44.694;37.790;2024-01-06T04:00:34;5.37;91.50
75190;HTU21D;69198;44.694;37.790;2024-01-06T04:01:35;5.38;91.43
75190;HTU21D;69198;44.694;37.790;2024-01-06T04:02:36;5.38;91.37
75190;HTU21D;69198;44.694;37.790;2024-01-06T04:03:38;5.37;91.31
75190;HTU21D;69198;44.694;37.790;2024-01-06T04:04:41;5.38;91.40
75190;HTU21D;69198;44.694;37.790;2024-01-06T04:05:42;5.40;91.41
75190;HTU21D;69198;44.694;37.790;2024-01-06T04:06:43;5.42;91.47
75190;HTU21D;69198;44.694;37.790;2024-01-06T04:07:44;5.46;91.49
75190;HTU21D;69198;44.694;37.790;2024-01-06T04:08:45;5.47;91.48
75190;HTU21D;69198;44.694;37.790;2024-01-06T04:09:46;5.50;91.49
75190;HTU21D;69198;44.694;37.790;2024-01-06T04:10:47;5.51;91.53
75190;HTU21D;69198;44.694;37.790;2024-01-06T04:11:48;5.52;91.55
75190;HTU21D;69198;44.694;37.790;2024-01-06T04:12:49;5.52;91.49
75190;HTU21D;69198;44.694;37.790;2024-01-06T04:13:50;5.53;91.56
75190;HTU21D;69198;44.694;37.790;2024-01-06T04:14:51;5.52;91.55
75190;HTU21D;69198;44.694;37.790;2024-01-06T04:15:53;5.53;91.52
75190;HTU21D;69198;44.694;37.790;2024-01-06T04:16:54;5.53;91.48
75190;HTU21D;69198;44.694;37.790;2024-01-06T04:18:01;5.54;91.27
75190;HTU21D;69198;44.694;37.790;2024-01-06T04:19:03;5.50;91.32
75190;HTU21D;69198;44.694;37.790;2024-01-06T04:20:07;5.47;91.43
75190;HTU21D;69198;44.694;37.790;2024-01-06T04:21:08;5.48;91.52
75190;HTU21D;69198;44.694;37.790;2024-01-06T04:22:09;5.51;91.59
75190;HTU21D;69198;44.694;37.790;2024-01-06T04:23:10;5.53;91.31
75190;HTU21D;69198;44.694;37.790;2024-01-06T04:24:12;5.51;91.26
75190;HTU21D;69198;44.694;37.790;2024-01-06T04:25:13;5.49;91.16
75190;HTU21D;69198;44.694;37.790;2024-01-06T04:26:14;5.45;91.18
75190;HTU21D;69198;44.694;37.790;2024-01-06T04:27:15;5.40;91.17
75190;HTU21D;69198;44.694;37.790;2024-01-06T04:28:16;5.37;91.29
75190;HTU21D;69198;44.694;37.790;2024-01-06T04:29:17;5.35;91.43
75190;HTU21D;69198;44.694;37.790;2024-01-06T04:30:19;5.36;91.59
75190;HTU21D;69198;44.694;37.790;2024-01-06T04:31:21;5.35;91.64
75190;HTU21D;69198;44.694;37.790;2024-01-06T04:32:22;5.36;91.65
75190;HTU21D;69198;44.694;37.790;2024-01-06T04:33:23;5.36;91.64
75190;HTU21D;69198;44.694;37.790;2024-01-06T04:34:24;5.35;91.63
75190;HTU21D;69198;44.694;37.790;2024-01-06T04:35:25;5.36;91.66
75190;HTU21D;69198;44.694;37.790;2024-01-06T04:36:26;5.35;91.66
75190;HTU21D;69198;44.694;37.790;2024-01-06T04:37:27;5.35;91.64
75190;HTU21D;69198;44.694;37.790;2024-01-06T04:38:29;5.37;91.63
75190;HTU21D;69198;44.694;37.790;2024-01-06T04:39:30;5.37;91.57
75190;HTU21D;69198;44.694;37.790;2024-01-06T04:40:31;5.38;91.54
75190;HTU21D;69198;44.694;37.790;2024-01-06T04:41:32;5.38;91.46
75190;HTU21D;69198;44.694;37.790;2024-01-06T04:42:33;5.38;91.40
75190;HTU21D;69198;44.694;37.790;2024-01-06T04:43:34;5.38;91.37
75190;HTU21D;69198;44.694;37.790;2024-01-06T04:44:35;5.38;91.36
75190;HTU21D;69198;44.694;37.790;2024-01-06T04:45:36;5.39;91.34
75190;HTU21D;69198;44.694;37.790;2024-01-06T04:46:37;5.39;91.31
75190;HTU21D;69198;44.694;37.790;2024-01-06T04:47:39;5.38;91.27
75190;HTU21D;69198;44.694;37.790;2024-01-06T04:48:41;5.39;91.27
75190;HTU21D;69198;44.694;37.790;2024-01-06T04:49:42;5.39;91.29
75190;HTU21D;69198;44.694;37.790;2024-01-06T04:50:43;5.39;91.29
75190;HTU21D;69198;44.694;37.790;2024-01-06T04:51:44;5.39;91.27
75190;HTU21D;69198;44.694;37.790;2024-01-06T04:52:45;5.39;91.25
75190;HTU21D;69198;44.694;37.790;2024-01-06T04:53:46;5.37;91.25
75190;HTU21D;69198;44.694;37.790;2024-01-06T04:54:47;5.37;91.32
75190;HTU21D;69198;44.694;37.790;2024-01-06T04:55:48;5.37;91.37
75190;HTU21D;69198;44.694;37.790;2024-01-06T04:56:52;5.37;91.39
75190;HTU21D;69198;44.694;37.790;2024-01-06T04:57:53;5.37;91.45
75190;HTU21D;69198;44.694;37.790;2024-01-06T04:58:54;5.36;91.51
75190;HTU21D;69198;44.694;37.790;2024-01-06T04:59:55;5.38;91.59
75190;HTU21D;69198;44.694;37.790;2024-01-06T05:00:57;5.42;91.68
75190;HTU21D;69198;44.694;37.790;2024-01-06T05:01:58;5.48;91.69
75190;HTU21D;69198;44.694;37.790;2024-01-06T05:02:59;5.53;91.67
75190;HTU21D;69198;44.694;37.790;2024-01-06T05:04:00;5.56;91.60
75190;HTU21D;69198;44.694;37.790;2024-01-06T05:05:01;5.61;91.44
75190;HTU21D;69198;44.694;37.790;2024-01-06T05:06:03;5.64;91.27
75190;HTU21D;69198;44.694;37.790;2024-01-06T05:07:04;5.63;91.04
75190;HTU21D;69198;44.694;37.790;2024-01-06T05:08:06;5.60;90.89
75190;HTU21D;69198;44.694;37.790;2024-01-06T05:09:07;5.59;90.81
75190;HTU21D;69198;44.694;37.790;2024-01-06T05:10:08;5.54;90.71
75190;HTU21D;69198;44.694;37.790;2024-01-06T05:11:09;5.51;90.66
75190;HTU21D;69198;44.694;37.790;2024-01-06T05:12:10;5.48;90.67
75190;HTU21D;69198;44.694;37.790;2024-01-06T05:13:12;5.46;90.71
75190;HTU21D;69198;44.694;37.790;2024-01-06T05:14:13;5.40;90.69
75190;HTU21D;69198;44.694;37.790;2024-01-06T05:15:14;5.39;90.75
75190;HTU21D;69198;44.694;37.790;2024-01-06T05:16:15;5.37;90.71
75190;HTU21D;69198;44.694;37.790;2024-01-06T05:17:16;5.36;90.77
75190;HTU21D;69198;44.694;37.790;2024-01-06T05:18:17;5.33;90.77
75190;HTU21D;69198;44.694;37.790;2024-01-06T05:19:18;5.34;90.95
75190;HTU21D;69198;44.694;37.790;2024-01-06T05:20:21;5.41;91.27
75190;HTU21D;69198;44.694;37.790;2024-01-06T05:21:22;5.54;91.39
75190;HTU21D;69198;44.694;37.790;2024-01-06T05:22:23;5.67;91.35
75190;HTU21D;69198;44.694;37.790;2024-01-06T05:23:24;5.81;91.24
75190;HTU21D;69198;44.694;37.790;2024-01-06T05:24:25;5.99;91.18
75190;HTU21D;69198;44.694;37.790;2024-01-06T05:25:26;6.20;90.96
75190;HTU21D;69198;44.694;37.790;2024-01-06T05:26:28;6.42;90.66
75190;HTU21D;69198;44.694;37.790;2024-01-06T05:27:29;6.66;90.21
75190;HTU21D;69198;44.694;37.790;2024-01-06T05:28:31;6.89;89.73
75190;HTU21D;69198;44.694;37.790;2024-01-06T05:29:32;7.12;89.16
75190;HTU21D;69198;44.694;37.790;2024-01-06T05:30:33;7.31;88.53
75190;HTU21D;69198;44.694;37.790;2024-01-06T05:31:34;7.42;88.04
75190;HTU21D;69198;44.694;37.790;2024-01-06T05:32:37;7.56;87.87
75190;HTU21D;69198;44.694;37.790;2024-01-06T05:33:39;7.76;87.62
75190;HTU21D;69198;44.694;37.790;2024-01-06T05:34:40;7.99;87.26
75190;HTU21D;69198;44.694;37.790;2024-01-06T05:35:41;8.26;86.76
75190;HTU21D;69198;44.694;37.790;2024-01-06T05:36:42;8.49;86.00
75190;HTU21D;69198;44.694;37.790;2024-01-06T05:37:43;8.71;85.51
75190;HTU21D;69198;44.694;37.790;2024-01-06T05:38:44;8.94;84.98
75190;HTU21D;69198;44.694;37.790;2024-01-06T05:39:45;9.19;84.42
75190;HTU21D;69198;44.694;37.790;2024-01-06T05:40:47;9.44;83.94
75190;HTU21D;69198;44.694;37.790;2024-01-06T05:41:48;9.69;83.42
75190;HTU21D;69198;44.694;37.790;2024-01-06T05:42:49;9.97;82.91
75190;HTU21D;69198;44.694;37.790;2024-01-06T05:43:50;10.25;82.33
75190;HTU21D;69198;44.694;37.790;2024-01-06T05:44:51;10.51;81.68
75190;HTU21D;69198;44.694;37.790;2024-01-06T05:45:53;10.77;81.10
75190;HTU21D;69198;44.694;37.790;2024-01-06T05:46:54;11.00;80.64
75190;HTU21D;69198;44.694;37.790;2024-01-06T05:47:55;11.25;80.10
75190;HTU21D;69198;44.694;37.790;2024-01-06T05:48:56;11.45;79.69
75190;HTU21D;69198;44.694;37.790;2024-01-06T05:49:57;11.66;79.18
75190;HTU21D;69198;44.694;37.790;2024-01-06T05:50:59;11.86;78.79
75190;HTU21D;69198;44.694;37.790;2024-01-06T05:52:00;12.01;78.47
75190;HTU21D;69198;44.694;37.790;2024-01-06T05:53:01;12.14;78.08
75190;HTU21D;69198;44.694;37.790;2024-01-06T05:54:02;12.21;77.82
75190;HTU21D;69198;44.694;37.790;2024-01-06T05:55:04;12.28;77.48
75190;HTU21D;69198;44.694;37.790;2024-01-06T05:56:05;12.29;77.37
75190;HTU21D;69198;44.694;37.790;2024-01-06T05:57:06;12.33;77.24
75190;HTU21D;69198;44.694;37.790;2024-01-06T05:58:08;12.37;77.24
75190;HTU21D;69198;44.694;37.790;2024-01-06T05:59:09;12.52;77.22
75190;HTU21D;69198;44.694;37.790;2024-01-06T06:00:10;12.74;76.89
75190;HTU21D;69198;44.694;37.790;2024-01-06T06:01:13;12.95;76.38
75190;HTU21D;69198;44.694;37.790;2024-01-06T06:02:14;13.12;75.86
75190;HTU21D;69198;44.694;37.790;2024-01-06T06:03:15;13.23;75.78
75190;HTU21D;69198;44.694;37.790;2024-01-06T06:04:16;13.40;75.58
75190;HTU21D;69198;44.694;37.790;2024-01-06T06:05:17;13.64;75.18
75190;HTU21D;69198;44.694;37.790;2024-01-06T06:06:18;13.91;74.53
75190;HTU21D;69198;44.694;37.790;2024-01-06T06:07:19;14.21;73.62
75190;HTU21D;69198;44.694;37.790;2024-01-06T06:08:21;14.48;72.55
75190;HTU21D;69198;44.694;37.790;2024-01-06T06:09:22;14.67;71.70
75190;HTU21D;69198;44.694;37.790;2024-01-06T06:10:23;14.77;70.80
75190;HTU21D;69198;44.694;37.790;2024-01-06T06:11:30;14.80;70.19
75190;HTU21D;69198;44.694;37.790;2024-01-06T06:12:31;14.82;69.74
75190;HTU21D;69198;44.694;37.790;2024-01-06T06:13:32;14.87;69.26
75190;HTU21D;69198;44.694;37.790;2024-01-06T06:14:33;14.87;68.80
75190;HTU21D;69198;44.694;37.790;2024-01-06T06:15:34;14.87;68.19
75190;HTU21D;69198;44.694;37.790;2024-01-06T06:16:36;14.84;67.88
75190;HTU21D;69198;44.694;37.790;2024-01-06T06:17:37;14.83;67.78
75190;HTU21D;69198;44.694;37.790;2024-01-06T06:18:38;14.81;67.47
75190;HTU21D;69198;44.694;37.790;2024-01-06T06:19:39;14.74;67.29
75190;HTU21D;69198;44.694;37.790;2024-01-06T06:20:41;14.70;67.18